Latest Weather Observations for Sydney - Observatory Hill

IDN60801

Issued at 6:42 pm EDT Sunday 15 December 2019 (issued every 10 minutes, with the page automatically refreshed every 10 minutes)

About weather observations | Map of weather stations | Latest weather observations for NSW | Other Formats
Station Details ID: 066062 Name: SYDNEY (OBSERVATORY HILL) Lat: -33.86 Lon: 151.21 Height: 39.0 m
Data from the previous 72 hours. | See also: Recent months at Sydney - Observatory Hill

* Apparent temperature (App Temp) for Sydney - Observatory Hill is calculated using temperature observations collected at Sydney - Observatory Hill and wind observations collected at Fort Denison, as wind observations are not currently provided for Sydney - Observatory Hill.

Date/Time
EDT
Temp
°C
App
Temp
°C
Dew
Point
°C
Rel
Hum
%
Delta-T
°C
Wind Press
QNH
hPa
Press
MSL
hPa
Rain since
9am
mm
Dir  Spd
km/h
Gust
km/h
Spd
kts
Gust
kts
15/06:30pm 24.0 25.1 18.0 69 3.8 ENE 9 - 5 - 1005.5 1005.3 0.0
15/06:00pm 24.4 25.0 17.6 66 4.3 ENE 11 - 6 - 1005.2 1005.0 0.0
15/05:30pm 24.6 24.8 17.6 65 4.4 ENE 13 - 7 - 1005.1 1004.9 0.0
15/05:00pm 24.6 24.6 17.3 64 4.6 NE 13 - 7 - 1005.0 1004.8 0.0
15/04:30pm 24.3 24.1 17.5 66 4.2 ENE 15 - 8 - 1004.6 1004.4 0.0
15/04:00pm 24.1 24.2 17.4 66 4.2 ENE 13 - 7 - 1005.4 1005.2 0.0
15/03:30pm 24.0 23.9 17.0 65 4.3 E 13 - 7 - 1005.7 1005.5 0.0
15/03:00pm 24.2 24.1 17.0 64 4.5 ENE 13 - 7 - 1005.9 1005.7 0.0
15/02:30pm 24.9 24.4 16.9 61 5.0 ENE 15 - 8 - 1006.2 1006.0 0.0
15/02:00pm 25.1 24.2 16.8 60 5.1 NE 17 - 9 - 1006.4 1006.2 0.0
15/01:30pm 24.9 23.8 16.3 59 5.3 ENE 17 - 9 - 1007.2 1007.0 0.0
15/01:00pm 25.9 25.2 17.3 59 5.4 ENE 17 - 9 - 1007.7 1007.6 0.0
15/12:30pm 25.4 24.5 16.8 59 5.3 NE 17 - 9 - 1008.0 1007.9 0.0
15/12:00pm 25.7 24.6 16.3 56 5.8 ENE 17 - 9 - 1008.6 1008.5 0.0
15/11:30am 26.2 24.9 16.7 56 5.9 ENE 19 - 10 - 1009.3 1009.2 0.0
15/11:00am 25.7 24.3 16.5 56 5.7 E 19 - 10 - 1009.9 1009.8 0.0
15/10:30am 25.6 26.5 16.2 56 5.8 ESE 6 - 3 - 1010.0 1009.9 0.0
15/10:00am 24.7 26.3 15.9 58 5.4 ESE 2 - 1 - 1010.6 1010.5 0.0
15/09:30am 23.4 24.5 16.7 66 4.1 W 6 - 3 - 1010.8 1010.7 0.0
15/09:00am 22.9 24.6 17.1 70 3.6 W 4 - 2 - 1011.0 1010.9 0.0
15/08:30am 21.8 22.1 17.0 74 2.9 W 11 - 6 - 1011.7 1011.6 0.0
15/08:00am 21.5 21.9 17.3 77 2.6 WNW 11 - 6 - 1011.7 1011.6 0.0
15/07:30am 20.9 22.2 17.1 79 2.3 NW 6 - 3 - 1011.4 1011.3 0.0
15/07:00am 20.7 22.8 17.1 80 2.2 NNW 2 - 1 - 1011.2 1011.1 0.0
15/06:30am 20.6 22.2 16.8 79 2.3 N 4 - 2 - 1011.3 1011.2 0.0
15/06:00am 20.7 21.7 16.9 79 2.3 NNE 7 - 4 - 1011.2 1011.1 0.0
15/05:30am 21.0 21.7 17.0 78 2.4 NNE 9 - 5 - 1011.3 1011.2 0.0
15/05:00am 20.9 21.0 16.5 76 2.7 E 11 - 6 - 1011.0 1010.9 0.0
15/04:30am 21.0 20.7 16.4 75 2.8 E 13 - 7 - 1010.9 1010.8 0.0
15/04:00am 21.0 19.9 16.4 75 2.8 ESE 17 - 9 - 1011.2 1011.1 0.0
15/03:30am 21.0 19.8 16.2 74 2.9 ESE 17 - 9 - 1011.6 1011.5 0.0
15/03:00am 21.0 19.9 16.4 75 2.8 ESE 17 - 9 - 1011.8 1011.7 0.0
15/02:30am 21.0 19.8 16.2 74 2.9 ESE 17 - 9 - 1012.0 1011.9 0.0
15/02:00am 20.8 19.0 16.0 74 2.9 ESE 20 - 11 - 1012.1 1012.0 0.0
15/01:30am 21.0 19.8 16.2 74 2.9 SE 17 - 9 - 1012.5 1012.4 0.0
15/01:00am 20.8 20.3 16.0 74 2.9 SE 13 - 7 - 1012.7 1012.6 0.0
15/12:30am 20.8 20.3 15.8 73 3.0 SE 13 - 7 - 1012.7 1012.6 0.0
15/12:00am 20.7 19.4 15.9 74 2.9 SSE 17 - 9 - 1013.2 1013.1 0.0
 
Date/Time
EDT
Temp
°C
App
Temp
°C
Dew
Point
°C
Rel
Hum
%
Delta-T
°C
Wind Press
QNH
hPa
Press
MSL
hPa
Rain since
9am
mm
Dir  Spd
km/h
Gust
km/h
Spd
kts
Gust
kts
14/11:30pm 20.8 19.2 16.0 74 2.9 SSE 19 - 10 - 1013.4 1013.3 0.0
14/11:00pm 21.0 19.8 16.0 73 3.0 SSE 17 - 9 - 1013.3 1013.2 0.0
14/10:30pm 21.1 19.6 16.3 74 2.9 SSE 19 - 10 - 1013.3 1013.2 0.0
14/10:00pm 21.3 19.9 16.5 74 2.9 SE 19 - 10 - 1012.8 1012.7 0.0
14/09:30pm 21.6 21.1 17.0 75 2.8 SE 15 - 8 - 1012.2 1012.1 0.0
14/09:00pm 21.6 20.2 16.6 73 3.0 SSE 19 - 10 - 1011.9 1011.8 0.0
14/08:30pm 21.8 20.8 16.5 72 3.2 SSE 17 - 9 - 1011.5 1011.4 0.0
14/08:00pm 22.0 20.6 16.5 71 3.3 SE 19 - 10 - 1011.1 1011.0 0.0
14/07:30pm 22.5 21.2 16.8 70 3.5 SE 19 - 10 - 1010.8 1010.7 0.0
14/07:00pm 23.0 21.5 16.8 68 3.8 SE 20 - 11 - 1010.4 1010.3 0.0
14/06:30pm 23.7 22.7 16.7 65 4.3 ESE 17 - 9 - 1009.6 1009.5 0.0
14/06:00pm 23.3 22.2 16.4 65 4.2 ESE 17 - 9 - 1009.2 1009.1 0.0
14/05:30pm 23.2 22.2 16.5 66 4.1 ESE 17 - 9 - 1008.6 1008.5 0.0
14/05:00pm 23.3 21.9 16.6 66 4.1 E 19 - 10 - 1008.5 1008.4 0.0
14/04:30pm 23.4 21.8 16.4 64 4.3 E 20 - 11 - 1008.3 1008.2 0.0
14/04:00pm 23.4 21.4 16.4 64 4.3 E 22 - 12 - 1008.4 1008.3 0.0
14/03:30pm 23.3 21.3 16.4 65 4.2 E 22 - 12 - 1008.4 1008.3 0.0
14/03:00pm 23.3 21.5 16.1 64 4.4 E 20 - 11 - 1008.4 1008.3 0.0
14/02:30pm 23.5 21.9 16.1 63 4.5 E 19 - 10 - 1008.6 1008.5 0.0
14/02:00pm 23.7 22.0 15.7 61 4.8 E 19 - 10 - 1009.0 1008.9 0.0
14/01:30pm 25.1 23.7 16.5 59 5.3 E 19 - 10 - 1009.4 1009.3 0.0
14/01:00pm 24.3 23.0 15.8 59 5.2 E 17 - 9 - 1009.8 1009.7 0.0
14/12:30pm 24.1 23.1 15.6 59 5.1 E 15 - 8 - 1010.1 1010.0 0.0
14/12:00pm 25.1 24.3 16.0 57 5.6 E 15 - 8 - 1010.3 1010.2 0.0
14/11:30am 24.9 24.1 15.2 54 5.8 ESE 13 - 7 - 1010.6 1010.5 0.0
14/11:00am 25.1 24.0 15.4 55 5.9 ESE 15 - 8 - 1010.8 1010.7 0.0
14/10:30am 25.4 25.0 15.1 53 6.2 E 11 - 6 - 1010.9 1010.8 0.0
14/10:00am 24.0 23.8 14.7 56 5.5 E 9 - 5 - 1011.4 1011.3 0.0
14/09:30am 23.2 24.0 14.7 58 5.0 E 4 - 2 - 1011.5 1011.4 0.0
14/09:00am 22.2 23.3 15.5 66 4.0 W 4 - 2 - 1011.9 1011.8 0.0
14/08:30am 21.4 22.4 15.3 68 3.6 W 4 - 2 - 1012.0 1011.9 0.0
14/08:00am 20.9 21.3 15.4 71 3.3 W 7 - 4 - 1011.9 1011.8 0.0
14/07:30am 20.3 21.8 15.7 75 2.7 WNW 2 - 1 - 1011.8 1011.7 0.0
14/07:00am 19.9 21.0 15.5 76 2.6 S 4 - 2 - 1011.7 1011.6 0.0
14/06:30am 19.7 21.0 15.1 75 2.7 W 2 - 1 - 1011.6 1011.5 0.0
14/06:00am 19.9 20.8 15.1 74 2.8 NNW 4 - 2 - 1011.4 1011.3 0.0
14/05:30am 19.9 21.1 14.9 73 2.9 N 2 - 1 - 1011.5 1011.4 0.0
14/05:00am 19.9 21.0 14.5 71 3.1 WSW 2 - 1 - 1011.4 1011.3 0.0
14/04:30am 20.0 21.1 14.6 71 3.2 NNE 2 - 1 - 1011.2 1011.1 0.0
14/04:00am 20.1 21.2 14.5 70 3.3 ESE 2 - 1 - 1011.7 1011.6 0.0
14/03:30am 20.2 21.3 14.6 70 3.3 NE 2 - 1 - 1011.8 1011.7 0.0
14/03:00am 20.2 21.2 14.3 69 3.4 NW 2 - 1 - 1012.1 1012.0 0.0
14/02:30am 20.4 21.8 14.3 68 3.5 CALM 0 - 0 - 1012.3 1012.2 0.0
14/02:00am 20.4 21.7 14.1 67 3.7 CALM 0 - 0 - 1012.7 1012.6 0.0
14/01:30am 20.5 21.4 13.9 66 3.8 NNW 2 - 1 - 1012.8 1012.7 0.0
14/01:00am 20.5 21.3 13.7 65 3.9 NNE 2 - 1 - 1013.1 1013.0 0.0
14/12:30am 20.8 20.6 13.7 64 4.1 NNE 7 - 4 - 1013.2 1013.1 0.0
14/12:00am 21.0 21.0 13.7 63 4.2 NE 6 - 3 - 1013.6 1013.5 0.0
 
Date/Time
EDT
Temp
°C
App
Temp
°C
Dew
Point
°C
Rel
Hum
%
Delta-T
°C
Wind Press
QNH
hPa
Press
MSL
hPa
Rain since
9am
mm
Dir  Spd
km/h
Gust
km/h
Spd
kts
Gust
kts
13/11:30pm 21.1 21.0 13.8 63 4.2 ENE 7 - 4 - 1013.8 1013.7 0.0
13/11:00pm 20.9 21.4 14.1 65 4.0 NE 4 - 2 - 1013.9 1013.8 0.0
13/10:30pm 20.8 21.0 14.2 66 3.8 E 6 - 3 - 1013.9 1013.8 0.0
13/10:00pm 20.8 20.9 14.0 65 3.9 ENE 6 - 3 - 1013.7 1013.6 0.0
13/09:30pm 20.9 20.4 13.8 64 4.1 ENE 9 - 5 - 1013.4 1013.3 0.0
13/09:00pm 20.6 20.3 14.3 67 3.7 E 9 - 5 - 1013.2 1013.1 0.0
13/08:30pm 20.5 19.9 14.6 69 3.5 E 11 - 6 - 1012.9 1012.8 0.0
13/08:00pm 20.7 19.5 14.1 66 3.8 E 13 - 7 - 1012.7 1012.6 0.0
13/07:30pm 20.8 19.1 13.5 63 4.2 E 15 - 8 - 1012.6 1012.5 0.0
13/07:00pm 21.2 19.2 13.9 63 4.2 E 17 - 9 - 1012.5 1012.4 0.0
13/06:30pm 21.2 18.5 13.6 62 4.4 ESE 20 - 11 - 1012.3 1012.2 0.0
13/06:00pm 21.3 18.2 13.5 61 4.5 ESE 22 - 12 - 1012.3 1012.2 0.0
13/05:30pm 21.3 18.2 13.5 61 4.5 ESE 22 - 12 - 1012.3 1012.2 0.0
13/05:00pm 21.7 18.7 13.6 60 4.7 ESE 22 - 12 - 1012.4 1012.3 0.0
13/04:30pm 21.6 17.7 13.2 59 4.8 ESE 26 - 14 - 1012.5 1012.4 0.0
13/04:00pm 22.0 18.4 13.1 57 5.1 E 24 - 13 - 1012.8 1012.7 0.0
13/03:30pm 22.2 19.0 13.0 56 5.3 E 22 - 12 - 1013.1 1013.0 0.0
13/03:00pm 22.5 19.0 13.3 56 5.3 ESE 24 - 13 - 1013.3 1013.2 0.0
13/02:30pm 22.5 18.4 12.7 54 5.6 ESE 26 - 14 - 1013.7 1013.6 0.0
13/02:00pm 22.4 19.0 12.4 53 5.7 ESE 22 - 12 - 1013.9 1013.8 0.0
13/01:30pm 22.7 19.6 12.3 52 5.9 ESE 20 - 11 - 1014.1 1014.0 0.0
13/01:00pm 22.7 19.8 12.3 52 5.9 ESE 19 - 10 - 1014.4 1014.3 0.0
13/12:30pm 22.6 19.7 12.3 52 5.8 ESE 19 - 10 - 1014.5 1014.4 0.0
13/12:00pm 21.5 19.0 12.4 56 5.1 E 17 - 9 - 1014.9 1014.8 0.0
13/11:30am 21.2 19.3 11.8 55 5.3 E 13 - 7 - 1015.0 1014.9 0.0
13/11:00am 21.2 20.0 11.5 54 5.4 E 9 - 5 - 1015.3 1015.2 0.0
13/10:30am 21.3 20.0 11.3 53 5.5 E 9 - 5 - 1015.5 1015.4 0.0
13/10:00am 20.7 19.9 11.6 56 5.0 ENE 7 - 4 - 1015.8 1015.7 0.0
13/09:30am 20.8 20.1 12.0 57 4.9 E 7 - 4 - 1015.9 1015.8 0.0
13/09:00am 20.1 19.8 13.3 65 3.9 E 7 - 4 - 1016.2 1016.1 0.0
13/08:30am 19.1 19.2 12.8 67 3.5 NNW 4 - 2 - 1016.3 1016.2 0.0
13/08:00am 18.4 18.9 12.8 70 3.1 NNW 2 - 1 - 1016.0 1015.9 0.0
13/07:30am 18.8 17.8 12.3 66 3.6 SE 9 - 5 - 1015.7 1015.6 0.0
13/07:00am 18.7 17.3 12.2 66 3.6 SE 11 - 6 - 1015.3 1015.2 0.0
13/06:30am 18.9 16.8 12.4 66 3.6 ESE 15 - 8 - 1015.0 1014.9 0.0
13/06:00am 19.0 17.7 12.5 66 3.6 SE 11 - 6 - 1015.0 1014.9 0.0
13/05:30am 18.7 16.9 12.2 66 3.6 ESE 13 - 7 - 1014.8 1014.7 0.0
13/05:00am 18.8 17.5 12.5 67 3.5 SSE 11 - 6 - 1014.7 1014.6 0.0
13/04:30am 18.8 17.5 11.4 62 4.1 SSE 9 - 5 - 1014.7 1014.6 0.0
13/04:00am 18.9 17.8 10.5 58 4.5 SE 7 - 4 - 1014.7 1014.6 0.0
13/03:30am 19.1 18.1 10.4 57 4.7 SE 6 - 3 - 1014.9 1014.8 0.0
13/03:00am 19.3 18.2 10.8 58 4.6 SE 7 - 4 - 1015.2 1015.1 0.0
13/02:30am 19.3 17.8 10.6 57 4.7 SE 9 - 5 - 1015.6 1015.5 0.0
13/02:00am 19.3 17.8 10.6 57 4.7 SE 9 - 5 - 1016.1 1016.0 0.0
13/01:30am 19.4 17.5 10.4 56 4.9 SE 11 - 6 - 1016.3 1016.2 0.0
13/01:00am 19.1 17.2 10.4 57 4.7 SE 11 - 6 - 1016.5 1016.4 0.0
13/12:30am 19.2 17.3 10.5 57 4.7 SSE 11 - 6 - 1016.8 1016.7 0.0
13/12:00am 19.3 17.0 10.3 56 4.8 SE 13 - 7 - 1016.8 1016.7 0.0
 
Date/Time
EDT
Temp
°C
App
Temp
°C
Dew
Point
°C
Rel
Hum
%
Delta-T
°C
Wind Press
QNH
hPa
Press
MSL
hPa
Rain since
9am
mm
Dir  Spd
km/h
Gust
km/h
Spd
kts
Gust
kts
12/11:30pm 19.4 17.4 10.1 55 5.0 SE 11 - 6 - 1017.1 1017.0 0.0
12/11:00pm 19.4 17.2 10.9 58 4.6 SSE 13 - 7 - 1017.0 1016.9 0.0
12/10:30pm 19.6 17.3 11.9 61 4.3 SSE 15 - 8 - 1016.9 1016.8 0.0
12/10:00pm 19.7 17.4 11.7 60 4.4 SE 15 - 8 - 1016.8 1016.7 0.0
12/09:30pm 19.6 17.3 11.6 60 4.4 SE 15 - 8 - 1016.5 1016.4 0.0
12/09:00pm 19.7 18.1 11.7 60 4.4 SE 11 - 6 - 1016.3 1016.2 0.0
12/08:30pm 19.9 17.4 12.2 61 4.3 SE 17 - 9 - 1015.8 1015.7 0.0
12/08:00pm 20.1 17.9 12.1 60 4.5 ESE 15 - 8 - 1015.5 1015.4 0.0
12/07:30pm 20.0 17.4 12.0 60 4.5 ESE 17 - 9 - 1015.0 1014.9 0.0
12/07:00pm 20.1 17.6 12.3 61 4.4 ESE 17 - 9 - 1014.5 1014.4 0.0

Other formats

Comma delimited format used in spreadsheet applications
http://www.bom.gov.au/fwo/IDN60801/IDN60801.94768.axf

JavaScript Object Notation format (JSON) in row-major order
http://www.bom.gov.au/fwo/IDN60801/IDN60801.94768.json

Data quality

Most of these data are generated automatically and are frequently updated. Quality checks on data are not normally performed. It is possible for incorrect values to appear. Refer to information at About Latest Weather Observations and please check the disclaimer before using these data.